Time;durP1;ratioP1;P1;durP2;ratioP2;P2;SDS_P1;SDS_P2;PMS_P1;PMS_P2;Temp;Humidity;BMP_temperature;BMP_pressure;BME280_temperature;BME280_humidity;BME280_pressure;Samples;Min_cycle;Max_cycle;Signal;HPM_P1;HPM_P2
2021/10/18 00:01:15;;;;;;;0.45;0.40;;;;;;;;;;7326815;19;153589;-12
2021/10/18 00:03:43;;;;;;;0.95;0.40;;;;;;;;;;7333355;19;161784;-14
2021/10/18 00:06:11;;;;;;;0.45;0.45;;;;;;;;;;7332723;19;162705;-15
2021/10/18 00:08:38;;;;;;;0.40;0.40;;;;;;;;;;7333782;19;154065;-15
2021/10/18 00:11:07;;;;;;;1.08;0.40;;;;;;;;;;7328176;19;153884;-14
2021/10/18 00:13:34;;;;;;;0.50;0.50;;;;;;;;;;7331753;19;162003;-12
2021/10/18 09:06:19;;;;;;;0.30;0.30;;;;;;;;;;7370080;19;132404;-15
2021/10/18 09:08:56;;;;;;;0.40;0.40;;;;;;;;;;7366190;19;153596;-13
2021/10/18 09:11:26;;;;;;;0.95;0.30;;;;;;;;;;7363802;19;162011;-11
2021/10/18 09:13:54;;;;;;;1.13;0.50;;;;;;;;;;7363172;19;162605;-14
2021/10/18 09:16:26;;;;;;;0.50;0.40;;;;;;;;;;7364281;19;153882;-13
2021/10/18 09:19:06;;;;;;;1.03;0.63;;;;;;;;;;7366137;19;153592;-13
2021/10/18 09:21:39;;;;;;;0.43;0.43;;;;;;;;;;7362145;19;161791;-13
2021/10/18 09:24:12;;;;;;;1.08;0.50;;;;;;;;;;7365444;19;162378;-15
2021/10/18 09:26:41;;;;;;;0.50;0.50;;;;;;;;;;7361298;19;154251;-13
2021/10/18 09:29:16;;;;;;;0.65;0.60;;;;;;;;;;7362102;19;153573;-13
2021/10/18 09:31:58;;;;;;;1.27;0.50;;;;;;;;;;7360046;19;161760;-14
2021/10/18 09:34:35;;;;;;;0.40;0.40;;;;;;;;;;7360067;19;162402;-15
2021/10/18 09:37:12;;;;;;;0.73;0.60;;;;;;;;;;7360028;19;154016;-15
2021/10/18 09:39:42;;;;;;;0.40;0.40;;;;;;;;;;7366289;19;153552;-15
2021/10/18 09:42:16;;;;;;;0.65;0.50;;;;;;;;;;7365207;19;162096;-13
2021/10/18 10:51:23;;;;;;;0.40;0.40;;;;;;;;;;7331683;19;161882;-15
2021/10/18 10:53:53;;;;;;;0.40;0.40;;;;;;;;;;7331807;19;162379;-15
2021/10/18 10:56:38;;;;;;;0.40;0.40;;;;;;;;;;7332869;19;154076;-14
2021/10/18 10:59:19;;;;;;;0.50;0.50;;;;;;;;;;7331316;19;153700;-16
2021/10/18 11:01:56;;;;;;;0.30;0.30;;;;;;;;;;7334029;19;162187;-13
2021/10/18 11:04:30;;;;;;;0.45;0.30;;;;;;;;;;7331366;19;162413;-16
2021/10/18 11:07:20;;;;;;;0.40;0.40;;;;;;;;;;7331712;19;153988;-17
2021/10/18 11:09:52;;;;;;;0.73;0.50;;;;;;;;;;7332387;19;154066;-15
2021/10/18 11:12:20;;;;;;;0.30;0.30;;;;;;;;;;7333124;19;162104;-16
2021/10/18 11:15:08;;;;;;;0.30;0.30;;;;;;;;;;7331743;19;162354;-15
2021/10/18 11:17:55;;;;;;;0.40;0.40;;;;;;;;;;7331149;19;153999;-14
2021/10/18 11:20:26;;;;;;;0.30;0.30;;;;;;;;;;7333082;19;153556;-13
2021/10/18 11:23:00;;;;;;;0.40;0.40;;;;;;;;;;7333789;19;162172;-16
2021/10/18 11:25:31;;;;;;;0.47;0.43;;;;;;;;;;7332959;19;162621;-15
2021/10/18 11:28:02;;;;;;;0.40;0.40;;;;;;;;;;7334282;19;154066;-16
2021/10/18 11:30:32;;;;;;;0.43;0.43;;;;;;;;;;7326346;19;153672;-14
2021/10/18 11:33:00;;;;;;;0.30;0.30;;;;;;;;;;7330837;19;162640;-14
2021/10/18 11:35:32;;;;;;;0.40;0.40;;;;;;;;;;7329426;19;164635;-14
2021/10/18 11:38:03;;;;;;;0.30;0.30;;;;;;;;;;7332357;19;153968;-17
2021/10/18 11:40:38;;;;;;;0.30;0.30;;;;;;;;;;7331660;19;153539;-16
2021/10/18 11:43:08;;;;;;;0.30;0.30;;;;;;;;;;7332968;19;161928;-15
2021/10/18 11:45:39;;;;;;;0.40;0.40;;;;;;;;;;7332873;19;162385;-13
2021/10/18 11:48:14;;;;;;;0.70;0.50;;;;;;;;;;7333243;19;153921;-15
2021/10/18 11:50:44;;;;;;;0.38;0.38;;;;;;;;;;7327343;19;153556;-15
2021/10/18 11:53:21;;;;;;;0.30;0.30;;;;;;;;;;7331384;19;162044;-12
2021/10/18 11:55:51;;;;;;;0.85;0.30;;;;;;;;;;7330083;19;162561;-14
2021/10/18 11:58:27;;;;;;;0.43;0.43;;;;;;;;;;7332166;19;153977;-14
2021/10/18 12:01:25;;;;;;;0.40;0.40;;;;;;;;;;7332813;19;153608;-13
2021/10/18 12:03:58;;;;;;;0.30;0.30;;;;;;;;;;7331849;19;162170;-14
2021/10/18 12:06:26;;;;;;;1.05;0.40;;;;;;;;;;7331414;19;162483;-15
2021/10/18 12:08:57;;;;;;;1.10;1.00;;;;;;;;;;7332675;19;153920;-14
2021/10/18 12:11:26;;;;;;;0.60;0.60;;;;;;;;;;7329860;19;153767;-13
2021/10/18 12:13:55;;;;;;;7.47;6.75;;;;;;;;;;7329353;19;161817;-14
2021/10/18 12:16:24;;;;;;;2.35;2.15;;;;;;;;;;7327224;19;163030;-16
2021/10/18 12:18:53;;;;;;;3.80;3.50;;;;;;;;;;7328873;19;154038;-13
2021/10/18 12:21:27;;;;;;;4.82;4.43;;;;;;;;;;7333547;19;153770;-12
2021/10/18 12:23:57;;;;;;;5.70;5.20;;;;;;;;;;7330042;19;162097;-14
2021/10/18 12:26:28;;;;;;;7.75;6.72;;;;;;;;;;7331633;19;162674;-15
2021/10/18 12:29:07;;;;;;;7.60;6.90;;;;;;;;;;7330867;19;154299;-15
2021/10/18 12:31:39;;;;;;;7.53;6.93;;;;;;;;;;7332215;19;153560;-16
2021/10/18 12:34:14;;;;;;;7.20;6.53;;;;;;;;;;7327936;19;161877;-13
2021/10/18 12:37:00;;;;;;;7.18;6.47;;;;;;;;;;7330928;19;162374;-13
2021/10/18 12:39:32;;;;;;;6.97;6.38;;;;;;;;;;7329276;19;153950;-14
2021/10/18 12:42:00;;;;;;;7.47;6.78;;;;;;;;;;7328260;19;153605;-15
2021/10/18 12:44:35;;;;;;;6.82;6.22;;;;;;;;;;7329474;19;161860;-16
2021/10/18 12:47:29;;;;;;;7.25;6.65;;;;;;;;;;7328481;19;162550;-16
2021/10/18 12:50:12;;;;;;;7.68;6.95;;;;;;;;;;7330311;19;155299;-16
2021/10/18 12:53:00;;;;;;;;;;;;;;;;;;7326966;19;153671;-13
2021/10/18 12:55:33;;;;;;;7.38;6.68;;;;;;;;;;7330070;19;161980;-15
2021/10/18 12:58:04;;;;;;;6.95;6.35;;;;;;;;;;7326089;19;162621;-16
2021/10/18 13:00:36;;;;;;;6.80;6.20;;;;;;;;;;7332286;19;154315;-16
2021/10/18 13:03:07;;;;;;;;;;;;;;;;;;7329031;19;153625;-15
2021/10/18 13:05:48;;;;;;;4.93;4.53;;;;;;;;;;7327213;19;162068;-13
2021/10/18 13:08:18;;;;;;;5.32;4.90;;;;;;;;;;7326927;19;163852;-16
2021/10/18 13:10:52;;;;;;;5.22;4.82;;;;;;;;;;7326347;19;153961;-14
2021/10/18 13:13:25;;;;;;;4.00;3.70;;;;;;;;;;7325252;19;153650;-15
2021/10/18 13:15:59;;;;;;;3.65;3.35;;;;;;;;;;7324800;19;162171;-15
2021/10/18 13:18:27;;;;;;;3.78;3.47;;;;;;;;;;7322568;19;162573;-14
2021/10/18 13:20:58;;;;;;;3.65;3.35;;;;;;;;;;7329046;19;154151;-15
2021/10/18 13:23:30;;;;;;;3.53;3.22;;;;;;;;;;7328311;19;153740;-14
2021/10/18 13:26:01;;;;;;;4.13;3.78;;;;;;;;;;7328288;19;161892;-15
2021/10/18 13:28:28;;;;;;;3.33;2.95;;;;;;;;;;7330668;19;162362;-16
2021/10/18 13:30:56;;;;;;;4.43;3.95;;;;;;;;;;7327877;19;154013;-14
2021/10/18 13:33:24;;;;;;;4.00;3.70;;;;;;;;;;7330928;19;153550;-16
2021/10/18 13:35:52;;;;;;;2.60;2.40;;;;;;;;;;7323285;19;161776;-16
2021/10/18 13:38:20;;;;;;;1.80;1.70;;;;;;;;;;7325229;19;162336;-16
2021/10/18 13:40:48;;;;;;;1.88;1.58;;;;;;;;;;7329134;19;154151;-18
2021/10/18 13:43:17;;;;;;;0.93;0.93;;;;;;;;;;7334294;19;153517;-14
2021/10/18 13:45:45;;;;;;;0.70;0.70;;;;;;;;;;7334131;19;161781;-14
2021/10/18 13:48:13;;;;;;;1.00;1.00;;;;;;;;;;7334186;19;162525;-13
2021/10/18 13:50:41;;;;;;;0.70;0.70;;;;;;;;;;7334166;19;154024;-14
2021/10/18 13:53:09;;;;;;;0.63;0.63;;;;;;;;;;7337325;19;153645;-15
2021/10/18 13:55:37;;;;;;;0.50;0.50;;;;;;;;;;7334437;19;161767;-16
2021/10/18 13:58:05;;;;;;;0.40;0.40;;;;;;;;;;7337106;19;162632;-12
2021/10/18 14:00:34;;;;;;;0.35;0.35;;;;;;;;;;7337327;19;153966;-14
2021/10/18 14:03:03;;;;;;;0.40;0.40;;;;;;;;;;7336086;19;153555;-14
2021/10/18 14:05:31;;;;;;;0.40;0.40;;;;;;;;;;7334679;19;162135;-15
2021/10/18 14:07:59;;;;;;;0.32;0.32;;;;;;;;;;7335266;19;162836;-14
2021/10/18 14:10:27;;;;;;;0.30;0.30;;;;;;;;;;7336757;19;154086;-14
2021/10/18 14:12:55;;;;;;;0.30;0.30;;;;;;;;;;7337152;19;153610;-14
2021/10/18 14:15:23;;;;;;;0.30;0.30;;;;;;;;;;7336092;19;162065;-13
2021/10/18 14:17:51;;;;;;;0.30;0.30;;;;;;;;;;7336570;19;162516;-13
2021/10/18 14:20:19;;;;;;;0.30;0.30;;;;;;;;;;7336081;19;154171;-13
2021/10/18 14:22:48;;;;;;;0.20;0.20;;;;;;;;;;7336503;19;153563;-15
2021/10/18 14:25:16;;;;;;;0.20;0.20;;;;;;;;;;7337458;19;161975;-14
2021/10/18 14:27:44;;;;;;;0.20;0.20;;;;;;;;;;7331857;19;162590;-13
2021/10/18 14:30:12;;;;;;;0.30;0.30;;;;;;;;;;7333085;19;153969;-12
2021/10/18 14:32:40;;;;;;;0.35;0.20;;;;;;;;;;7333010;19;153519;-14
2021/10/18 14:35:09;;;;;;;0.20;0.20;;;;;;;;;;7332669;19;161970;-15
2021/10/18 14:37:37;;;;;;;0.20;0.20;;;;;;;;;;7330305;19;162647;-16
2021/10/18 14:40:07;;;;;;;0.15;0.15;;;;;;;;;;7331844;19;154691;-16
2021/10/18 14:42:35;;;;;;;0.20;0.20;;;;;;;;;;7332659;19;153571;-14
2021/10/18 14:45:05;;;;;;;0.20;0.20;;;;;;;;;;7332866;19;161774;-13
2021/10/18 14:47:36;;;;;;;0.17;0.17;;;;;;;;;;7331640;19;162426;-15
2021/10/18 14:50:08;;;;;;;0.20;0.20;;;;;;;;;;7333005;19;154016;-14
2021/10/18 14:52:36;;;;;;;0.10;0.10;;;;;;;;;;7332697;19;153739;-15
2021/10/18 14:55:06;;;;;;;0.10;0.10;;;;;;;;;;7330947;19;161901;-16
2021/10/18 14:57:35;;;;;;;0.10;0.10;;;;;;;;;;7329671;19;162560;-13
2021/10/18 15:00:04;;;;;;;0.17;0.17;;;;;;;;;;7332567;19;154019;-14
2021/10/18 15:02:33;;;;;;;0.20;0.20;;;;;;;;;;7332724;19;153522;-12
2021/10/18 15:05:01;;;;;;;0.13;0.13;;;;;;;;;;7330883;19;161971;-12
2021/10/18 15:07:30;;;;;;;0.20;0.20;;;;;;;;;;7332149;19;162538;-12
2021/10/18 15:09:58;;;;;;;0.10;0.10;;;;;;;;;;7332361;19;154145;-15
2021/10/18 15:12:28;;;;;;;0.25;0.25;;;;;;;;;;7332214;19;153550;-15
2021/10/18 15:14:56;;;;;;;0.10;0.10;;;;;;;;;;7330731;19;161814;-13
2021/10/18 15:17:24;;;;;;;0.20;0.20;;;;;;;;;;7328473;19;162413;-14
2021/10/18 15:19:52;;;;;;;0.17;0.17;;;;;;;;;;7331954;19;153995;-14
2021/10/18 15:22:20;;;;;;;0.10;0.10;;;;;;;;;;7330944;19;153558;-14
2021/10/18 15:24:48;;;;;;;0.20;0.20;;;;;;;;;;7331536;19;162068;-12
2021/10/18 15:27:16;;;;;;;0.20;0.20;;;;;;;;;;7331550;19;162543;-14
2021/10/18 15:29:49;;;;;;;0.17;0.10;;;;;;;;;;7334356;19;153990;-15
2021/10/18 15:32:17;;;;;;;0.20;0.20;;;;;;;;;;7335040;19;153538;-14
2021/10/18 15:34:45;;;;;;;0.20;0.20;;;;;;;;;;7332987;19;161858;-12
2021/10/18 15:37:13;;;;;;;0.20;0.20;;;;;;;;;;7331462;19;162512;-15
2021/10/18 15:39:41;;;;;;;0.20;0.20;;;;;;;;;;7334060;19;154044;-12
2021/10/18 15:42:10;;;;;;;0.30;0.30;;;;;;;;;;7333740;19;153666;-13
2021/10/18 15:44:40;;;;;;;0.30;0.30;;;;;;;;;;7334287;19;161871;-13
2021/10/18 15:47:09;;;;;;;0.30;0.30;;;;;;;;;;7332052;19;162620;-12
2021/10/18 15:49:37;;;;;;;0.85;0.28;;;;;;;;;;7334345;19;153982;-13
2021/10/18 15:52:05;;;;;;;0.52;0.30;;;;;;;;;;7334571;19;153916;-15
2021/10/18 15:54:34;;;;;;;0.32;0.32;;;;;;;;;;7333561;19;161981;-12
2021/10/18 15:57:03;;;;;;;0.40;0.40;;;;;;;;;;7331894;19;162972;-13
2021/10/18 15:59:33;;;;;;;0.40;0.40;;;;;;;;;;7332977;19;153957;-15
2021/10/18 16:02:02;;;;;;;0.30;0.30;;;;;;;;;;7333863;19;153704;-15
2021/10/18 16:04:31;;;;;;;0.40;0.40;;;;;;;;;;7330967;19;162083;-14
2021/10/18 16:07:00;;;;;;;0.40;0.40;;;;;;;;;;7332807;19;162551;-15
2021/10/18 16:09:28;;;;;;;0.40;0.40;;;;;;;;;;7333558;19;153964;-15
2021/10/18 16:11:56;;;;;;;0.38;0.38;;;;;;;;;;7334374;19;153553;-13
2021/10/18 16:14:24;;;;;;;0.73;0.30;;;;;;;;;;7328706;19;162146;-15
2021/10/18 16:16:57;;;;;;;1.80;0.73;;;;;;;;;;7330932;19;162489;-14
2021/10/18 16:19:26;;;;;;;1.30;0.45;;;;;;;;;;7330453;19;154026;-16
2021/10/18 16:21:55;;;;;;;0.60;0.52;;;;;;;;;;7326832;19;153526;-14
2021/10/18 16:24:23;;;;;;;0.40;0.40;;;;;;;;;;7326977;19;161802;-16
2021/10/18 16:26:51;;;;;;;0.47;0.47;;;;;;;;;;7328246;19;162432;-14
2021/10/18 16:29:20;;;;;;;0.57;0.57;;;;;;;;;;7328879;19;154488;-13
2021/10/18 16:31:48;;;;;;;0.40;0.40;;;;;;;;;;7329819;19;153517;-13
2021/10/18 16:34:17;;;;;;;0.75;0.50;;;;;;;;;;7328664;19;162312;-12
2021/10/18 16:36:45;;;;;;;0.50;0.50;;;;;;;;;;7328766;19;162643;-13
2021/10/18 16:39:14;;;;;;;0.57;0.57;;;;;;;;;;7328421;19;154034;-12
2021/10/18 16:41:42;;;;;;;0.52;0.52;;;;;;;;;;7328348;19;153595;-15
2021/10/18 16:44:14;;;;;;;0.60;0.60;;;;;;;;;;7329462;19;161835;-16
2021/10/18 16:46:45;;;;;;;0.40;0.40;;;;;;;;;;7328193;19;162460;-14
2021/10/18 16:49:18;;;;;;;0.40;0.40;;;;;;;;;;7328413;19;154004;-12
2021/10/18 16:51:52;;;;;;;0.40;0.40;;;;;;;;;;7328134;19;153511;-14
2021/10/18 16:54:22;;;;;;;0.40;0.40;;;;;;;;;;7328830;19;162030;-13
2021/10/18 16:56:50;;;;;;;0.40;0.40;;;;;;;;;;7327030;19;162746;-14
2021/10/18 16:59:19;;;;;;;0.47;0.45;;;;;;;;;;7329179;19;154060;-15
2021/10/18 17:01:48;;;;;;;0.60;0.60;;;;;;;;;;7327946;19;153509;-14
2021/10/18 17:04:17;;;;;;;0.50;0.50;;;;;;;;;;7328097;19;161846;-13
2021/10/18 17:06:47;;;;;;;0.73;0.40;;;;;;;;;;7328509;19;162388;-15
2021/10/18 17:09:19;;;;;;;0.40;0.40;;;;;;;;;;7328089;19;154043;-15
2021/10/18 17:11:49;;;;;;;0.43;0.43;;;;;;;;;;7328517;19;153811;-16
2021/10/18 17:14:17;;;;;;;0.40;0.40;;;;;;;;;;7328470;19;161855;-13
2021/10/18 17:16:46;;;;;;;0.30;0.30;;;;;;;;;;7331705;19;162580;-12
2021/10/18 17:19:16;;;;;;;0.40;0.40;;;;;;;;;;7335507;19;153992;-16
2021/10/18 17:21:45;;;;;;;0.35;0.35;;;;;;;;;;7335481;19;153864;-15
2021/10/18 17:24:13;;;;;;;0.30;0.30;;;;;;;;;;7334950;19;161897;-14
2021/10/18 17:26:41;;;;;;;0.40;0.40;;;;;;;;;;7333828;19;162421;-13
2021/10/18 17:29:10;;;;;;;0.50;0.50;;;;;;;;;;7335218;19;153945;-13
2021/10/18 17:31:39;;;;;;;0.75;0.75;;;;;;;;;;7335169;19;153744;-13
2021/10/18 17:34:08;;;;;;;0.98;0.98;;;;;;;;;;7333475;19;161931;-16
2021/10/18 17:36:36;;;;;;;1.25;1.25;;;;;;;;;;7333481;19;162464;-14
2021/10/18 17:39:07;;;;;;;1.30;1.30;;;;;;;;;;7335045;19;153958;-12
2021/10/18 17:41:35;;;;;;;1.30;1.30;;;;;;;;;;7333558;19;153516;-16
2021/10/18 17:44:03;;;;;;;0.85;0.85;;;;;;;;;;7332824;19;161937;-13
2021/10/18 17:46:33;;;;;;;0.90;0.90;;;;;;;;;;7333083;19;162625;-12
2021/10/18 17:49:01;;;;;;;2.30;0.95;;;;;;;;;;7335421;19;154060;-12
2021/10/18 17:51:29;;;;;;;0.70;0.70;;;;;;;;;;7337221;19;153687;-14
2021/10/18 17:53:57;;;;;;;0.77;0.77;;;;;;;;;;7334477;19;162761;-12
2021/10/18 17:56:25;;;;;;;1.23;0.90;;;;;;;;;;7335610;19;162535;-15
2021/10/18 17:58:54;;;;;;;0.80;0.80;;;;;;;;;;7333334;19;153996;-13
2021/10/18 18:01:22;;;;;;;0.70;0.70;;;;;;;;;;7336242;19;153527;-17
2021/10/18 18:03:50;;;;;;;0.73;0.73;;;;;;;;;;7333399;19;161908;-14
2021/10/18 18:06:19;;;;;;;0.85;0.85;;;;;;;;;;7332756;19;162533;-12
2021/10/18 18:08:47;;;;;;;0.93;0.90;;;;;;;;;;7332573;19;153982;-15
2021/10/18 18:11:16;;;;;;;5.22;1.38;;;;;;;;;;7337230;19;154067;-13
2021/10/18 18:13:44;;;;;;;2.13;1.80;;;;;;;;;;7332046;19;162542;-14
2021/10/18 18:16:12;;;;;;;2.40;1.30;;;;;;;;;;7331716;19;162516;-16
2021/10/18 18:18:40;;;;;;;1.60;1.50;;;;;;;;;;7330732;19;153991;-16
2021/10/18 18:21:08;;;;;;;3.95;1.73;;;;;;;;;;7332532;19;153698;-13
2021/10/18 18:23:36;;;;;;;1.70;1.60;;;;;;;;;;7331610;19;162509;-15
2021/10/18 18:26:04;;;;;;;1.60;1.50;;;;;;;;;;7331389;19;162664;-14
2021/10/18 18:28:34;;;;;;;1.30;1.20;;;;;;;;;;7331197;19;154007;-13
2021/10/18 18:31:03;;;;;;;1.20;1.20;;;;;;;;;;7330513;19;153522;-14
2021/10/18 18:33:32;;;;;;;1.27;1.27;;;;;;;;;;7331076;19;161898;-14
2021/10/18 18:36:00;;;;;;;1.20;1.20;;;;;;;;;;7331166;19;162461;-16
2021/10/18 18:38:28;;;;;;;1.30;1.30;;;;;;;;;;7332295;19;154336;-13
2021/10/18 18:40:56;;;;;;;1.27;1.25;;;;;;;;;;7334916;19;153596;-15
2021/10/18 18:43:24;;;;;;;1.33;1.27;;;;;;;;;;7330633;19;161839;-16
2021/10/18 18:45:52;;;;;;;3.13;1.33;;;;;;;;;;7332747;19;162239;-14
2021/10/18 18:48:20;;;;;;;1.38;1.38;;;;;;;;;;7334878;19;154293;-13
2021/10/18 18:50:49;;;;;;;1.70;1.40;;;;;;;;;;7333339;19;153587;-15
2021/10/18 18:53:17;;;;;;;1.33;1.33;;;;;;;;;;7333332;19;161846;-13
2021/10/18 18:55:45;;;;;;;1.30;1.30;;;;;;;;;;7334041;19;162521;-14
2021/10/18 18:58:13;;;;;;;1.27;1.20;;;;;;;;;;7333343;19;154034;-15
2021/10/18 19:00:41;;;;;;;1.50;1.40;;;;;;;;;;7334516;19;153683;-13
2021/10/18 19:03:10;;;;;;;1.30;1.30;;;;;;;;;;7334119;19;161962;-14
2021/10/18 19:05:38;;;;;;;1.35;1.35;;;;;;;;;;7332286;19;162449;-15
2021/10/18 19:08:06;;;;;;;1.73;1.63;;;;;;;;;;7331699;19;153974;-14
2021/10/18 19:10:34;;;;;;;1.50;1.40;;;;;;;;;;7334323;19;155223;-13
2021/10/18 19:13:03;;;;;;;1.30;1.30;;;;;;;;;;7334410;19;161831;-13
2021/10/18 19:15:34;;;;;;;1.45;1.30;;;;;;;;;;7330093;19;162511;-14
2021/10/18 19:18:02;;;;;;;1.50;1.40;;;;;;;;;;7334194;19;153992;-14
2021/10/18 19:20:30;;;;;;;1.30;1.30;;;;;;;;;;7332061;19;153677;-16
2021/10/18 19:22:58;;;;;;;1.30;1.30;;;;;;;;;;7331046;19;161915;-14
2021/10/18 19:25:26;;;;;;;1.45;1.20;;;;;;;;;;7331132;19;162403;-13
2021/10/18 19:27:54;;;;;;;1.33;1.33;;;;;;;;;;7333812;19;154357;-15
2021/10/18 19:30:22;;;;;;;1.73;1.27;;;;;;;;;;7334302;19;153512;-14
2021/10/18 19:32:51;;;;;;;1.10;1.10;;;;;;;;;;7334172;19;161934;-13
2021/10/18 19:35:19;;;;;;;1.08;1.08;;;;;;;;;;7333345;19;162401;-14
2021/10/18 19:37:50;;;;;;;1.20;1.20;;;;;;;;;;7332142;19;154121;-13
2021/10/18 19:40:18;;;;;;;1.05;1.05;;;;;;;;;;7332398;19;153517;-15
2021/10/18 19:42:46;;;;;;;1.27;1.23;;;;;;;;;;7333683;19;161913;-18
2021/10/18 19:45:15;;;;;;;1.27;1.17;;;;;;;;;;7334237;19;162339;-18
2021/10/18 19:47:43;;;;;;;1.10;1.10;;;;;;;;;;7334247;19;154265;-14
2021/10/18 19:50:14;;;;;;;1.20;1.20;;;;;;;;;;7332293;19;153571;-15
2021/10/18 19:52:42;;;;;;;1.10;1.10;;;;;;;;;;7333061;19;162101;-16
2021/10/18 19:55:12;;;;;;;1.08;1.08;;;;;;;;;;7330994;19;162927;-13
2021/10/18 19:57:40;;;;;;;1.10;1.10;;;;;;;;;;7332454;19;154015;-17
2021/10/18 20:00:10;;;;;;;1.08;1.08;;;;;;;;;;7333089;19;153633;-13
2021/10/18 20:02:42;;;;;;;1.42;1.42;;;;;;;;;;7331092;19;161798;-14
2021/10/18 20:05:11;;;;;;;1.10;1.10;;;;;;;;;;7327953;19;162356;-14
2021/10/18 20:07:39;;;;;;;1.00;1.00;;;;;;;;;;7331544;19;154399;-14
2021/10/18 20:10:08;;;;;;;1.10;1.10;;;;;;;;;;7334682;19;153580;-15
2021/10/18 20:12:40;;;;;;;1.30;1.30;;;;;;;;;;7333520;19;161839;-14
2021/10/18 20:15:11;;;;;;;1.23;1.23;;;;;;;;;;7331768;19;162548;-14
2021/10/18 20:17:45;;;;;;;1.40;1.20;;;;;;;;;;7273580;19;154443;-16
2021/10/18 20:20:25;;;;;;;1.20;1.20;;;;;;;;;;2302406;19;10154782;-14
2021/10/18 20:22:53;;;;;;;1.15;1.15;;;;;;;;;;4956631;19;10134895;-13
2021/10/18 20:25:24;;;;;;;1.20;1.20;;;;;;;;;;7333531;19;161866;-12
2021/10/18 20:27:53;;;;;;;1.42;1.30;;;;;;;;;;7329853;19;162745;-11
2021/10/18 20:30:21;;;;;;;1.20;1.20;;;;;;;;;;7330316;19;154221;-14
2021/10/18 20:32:49;;;;;;;1.25;1.20;;;;;;;;;;7331261;19;153901;-16
2021/10/18 20:35:17;;;;;;;1.10;1.10;;;;;;;;;;7332595;19;161882;-12
2021/10/18 20:37:45;;;;;;;1.10;1.10;;;;;;;;;;7328850;19;162372;-21
2021/10/18 20:40:30;;;;;;;1.17;1.17;;;;;;;;;;7331326;19;154019;-15
2021/10/18 20:42:59;;;;;;;1.10;1.10;;;;;;;;;;7332475;19;153507;-17
2021/10/18 20:45:27;;;;;;;1.10;1.10;;;;;;;;;;7331089;19;161864;-15
2021/10/18 20:47:55;;;;;;;1.30;1.30;;;;;;;;;;7331988;19;162469;-17
2021/10/18 20:50:26;;;;;;;1.30;1.30;;;;;;;;;;7332189;19;153975;-14
2021/10/18 20:52:55;;;;;;;1.10;1.10;;;;;;;;;;7330366;19;153636;-14
2021/10/18 20:55:25;;;;;;;1.08;1.08;;;;;;;;;;7330650;19;161905;-14
2021/10/18 20:57:54;;;;;;;1.40;1.40;;;;;;;;;;7331431;19;162435;-15
2021/10/18 21:00:22;;;;;;;1.17;1.17;;;;;;;;;;7330425;19;154165;-16
2021/10/18 21:02:51;;;;;;;1.15;1.15;;;;;;;;;;7331568;19;153622;-16
2021/10/18 21:05:20;;;;;;;1.30;1.20;;;;;;;;;;7329405;19;161888;-16
2021/10/18 21:07:48;;;;;;;1.30;1.30;;;;;;;;;;7328972;19;164374;-16
2021/10/18 21:10:17;;;;;;;1.23;1.15;;;;;;;;;;7331388;19;154188;-14
2021/10/18 21:12:45;;;;;;;1.27;1.17;;;;;;;;;;7328586;19;153555;-16
2021/10/18 21:15:14;;;;;;;1.13;1.13;;;;;;;;;;7327808;19;162586;-14
2021/10/18 21:17:42;;;;;;;1.30;1.30;;;;;;;;;;7329471;19;162672;-16
2021/10/18 21:20:10;;;;;;;1.33;1.27;;;;;;;;;;7325767;19;154076;-15
2021/10/18 21:22:39;;;;;;;1.00;1.00;;;;;;;;;;7331074;19;153575;-14
2021/10/18 21:25:08;;;;;;;1.10;1.10;;;;;;;;;;7327739;19;161959;-15
2021/10/18 21:27:36;;;;;;;1.10;1.10;;;;;;;;;;7327853;19;162424;-16
2021/10/18 21:30:05;;;;;;;1.10;1.10;;;;;;;;;;7332566;19;154077;-12
2021/10/18 21:32:33;;;;;;;1.17;1.10;;;;;;;;;;7327806;19;153676;-13
2021/10/18 21:35:03;;;;;;;1.02;1.02;;;;;;;;;;7326825;19;162213;-14
2021/10/18 21:37:31;;;;;;;1.20;1.20;;;;;;;;;;7328975;19;162534;-14
2021/10/18 21:39:59;;;;;;;1.02;1.02;;;;;;;;;;7326460;19;154114;-14
2021/10/18 21:42:27;;;;;;;1.10;1.10;;;;;;;;;;7325640;19;154528;-14
2021/10/18 21:44:55;;;;;;;1.00;1.00;;;;;;;;;;7329724;19;163480;-13
2021/10/18 21:47:23;;;;;;;1.00;1.00;;;;;;;;;;7325976;19;162522;-14
2021/10/18 21:49:51;;;;;;;1.00;1.00;;;;;;;;;;7327366;19;153969;-13
2021/10/18 21:52:19;;;;;;;1.02;1.02;;;;;;;;;;7329087;19;153455;-13
2021/10/18 21:54:47;;;;;;;1.05;1.05;;;;;;;;;;7330200;19;161862;-12
2021/10/18 21:57:15;;;;;;;1.00;1.00;;;;;;;;;;7327206;19;162295;-14
2021/10/18 21:59:43;;;;;;;1.10;1.10;;;;;;;;;;7325538;19;153971;-15
2021/10/18 22:02:11;;;;;;;1.13;1.13;;;;;;;;;;7329168;19;153558;-14
2021/10/18 22:04:39;;;;;;;1.10;1.10;;;;;;;;;;7337591;19;161807;-14
2021/10/18 22:07:07;;;;;;;1.02;1.02;;;;;;;;;;7337795;19;162518;-15
2021/10/18 22:09:35;;;;;;;1.10;1.10;;;;;;;;;;7333788;19;154015;-16
2021/10/18 22:12:03;;;;;;;1.00;1.00;;;;;;;;;;7336345;19;153637;-13
2021/10/18 22:14:31;;;;;;;1.05;1.05;;;;;;;;;;7336819;19;161954;-16
2021/10/18 22:17:00;;;;;;;1.00;1.00;;;;;;;;;;7337844;19;162677;-15
2021/10/18 22:19:29;;;;;;;1.02;1.02;;;;;;;;;;7332697;19;154346;-14
2021/10/18 22:21:58;;;;;;;0.90;0.90;;;;;;;;;;7333793;19;153521;-15
2021/10/18 22:24:26;;;;;;;1.00;1.00;;;;;;;;;;7333144;19;161926;-17
2021/10/18 22:26:54;;;;;;;1.08;1.08;;;;;;;;;;7333062;19;162518;-15
2021/10/18 22:29:22;;;;;;;1.38;1.10;;;;;;;;;;7333115;19;153998;-14
2021/10/18 22:31:51;;;;;;;1.00;1.00;;;;;;;;;;7330259;19;153507;-14
2021/10/18 22:34:19;;;;;;;0.93;0.93;;;;;;;;;;7336405;19;161838;-14
2021/10/18 22:36:47;;;;;;;0.80;0.80;;;;;;;;;;7336168;19;162359;-15
2021/10/18 22:39:15;;;;;;;1.30;1.10;;;;;;;;;;7333964;19;154125;-15
2021/10/18 22:41:43;;;;;;;0.80;0.80;;;;;;;;;;7333738;19;153555;-15
2021/10/18 22:44:11;;;;;;;1.00;1.00;;;;;;;;;;7332765;19;161847;-14
2021/10/18 22:46:39;;;;;;;1.10;1.00;;;;;;;;;;7336176;19;162424;-16
2021/10/18 22:49:07;;;;;;;1.00;1.00;;;;;;;;;;7335461;19;154120;-14
2021/10/18 22:51:35;;;;;;;1.02;1.02;;;;;;;;;;7333487;19;153796;-13
2021/10/18 22:54:03;;;;;;;0.90;0.90;;;;;;;;;;7332113;19;161973;-14
2021/10/18 22:56:31;;;;;;;0.82;0.82;;;;;;;;;;7331873;19;162634;-15
2021/10/18 22:58:59;;;;;;;1.10;1.10;;;;;;;;;;7332855;19;153956;-14
2021/10/18 23:01:27;;;;;;;0.80;0.80;;;;;;;;;;7335895;19;153495;-16
2021/10/18 23:03:56;;;;;;;1.10;1.10;;;;;;;;;;7332982;19;161813;-17
2021/10/18 23:06:24;;;;;;;0.93;0.93;;;;;;;;;;7331653;19;162374;-15
2021/10/18 23:08:53;;;;;;;1.00;1.00;;;;;;;;;;7332571;19;154115;-14
2021/10/18 23:11:21;;;;;;;1.10;1.00;;;;;;;;;;7336386;19;153704;-13
2021/10/18 23:13:49;;;;;;;1.05;1.05;;;;;;;;;;7330709;19;161913;-15
2021/10/18 23:16:17;;;;;;;1.10;0.90;;;;;;;;;;7331837;19;162522;-13
2021/10/18 23:18:45;;;;;;;0.90;0.90;;;;;;;;;;7329985;19;153983;-15
2021/10/18 23:21:13;;;;;;;0.80;0.80;;;;;;;;;;7331401;19;153643;-16
2021/10/18 23:23:41;;;;;;;1.00;1.00;;;;;;;;;;7332531;19;162094;-15
2021/10/18 23:26:09;;;;;;;0.95;0.95;;;;;;;;;;7331769;19;162392;-16
2021/10/18 23:28:37;;;;;;;0.80;0.80;;;;;;;;;;7333889;19;155784;-13
2021/10/18 23:31:06;;;;;;;0.90;0.90;;;;;;;;;;7330017;19;153573;-14
2021/10/18 23:33:34;;;;;;;1.05;1.05;;;;;;;;;;7330524;19;161972;-14
2021/10/18 23:36:01;;;;;;;0.85;0.85;;;;;;;;;;7331447;19;162446;-12
2021/10/18 23:38:31;;;;;;;1.08;1.08;;;;;;;;;;7297566;19;154146;-12
2021/10/18 23:41:00;;;;;;;1.08;1.00;;;;;;;;;;7301066;19;153896;-12
2021/10/18 23:43:29;;;;;;;0.80;0.80;;;;;;;;;;7330076;19;161837;-12
2021/10/18 23:45:57;;;;;;;1.00;1.00;;;;;;;;;;7329712;19;162434;-11
2021/10/18 23:48:25;;;;;;;0.80;0.80;;;;;;;;;;7332083;19;154169;-12
2021/10/18 23:50:53;;;;;;;0.90;0.90;;;;;;;;;;7333307;19;153706;-12
2021/10/18 23:53:21;;;;;;;0.90;0.90;;;;;;;;;;7333951;19;161757;-12
2021/10/18 23:55:49;;;;;;;0.88;0.88;;;;;;;;;;7334356;19;162405;-11
2021/10/18 23:58:16;;;;;;;0.80;0.80;;;;;;;;;;7332059;19;154068;-12
